createdAt,value
2019-03-24T00:00:51.297Z,101602.45
2019-03-24T00:03:19.578Z,101602.09
2019-03-24T00:05:48.120Z,101597.53
2019-03-24T00:08:16.541Z,101592.31
2019-03-24T00:10:44.849Z,101591.47
2019-03-24T00:13:13.374Z,101585.58
2019-03-24T00:15:41.609Z,101585.09
2019-03-24T00:18:10.274Z,101584.22
2019-03-24T00:20:38.672Z,101586.45
2019-03-24T00:23:07.213Z,101584.22
2019-03-24T00:25:36.138Z,101594.53
2019-03-24T00:28:04.777Z,101581.79
2019-03-24T00:30:33.291Z,101591.98
2019-03-24T00:33:02.011Z,101583.88
2019-03-24T00:35:31.130Z,101576.25
2019-03-24T00:37:59.509Z,101571.84
2019-03-24T00:40:28.233Z,101575.98
2019-03-24T00:42:57.620Z,101572.36
2019-03-24T00:45:36.257Z,101569.95
2019-03-24T00:47:55.688Z,101566.80
2019-03-24T00:50:24.194Z,101565.13
2019-03-24T00:52:52.195Z,101562.40
2019-03-24T00:55:20.935Z,101560.91
2019-03-24T00:57:49.472Z,101562.33
2019-03-24T01:00:27.341Z,101554.37
2019-03-24T01:02:55.886Z,101558.12
2019-03-24T01:05:24.324Z,101551.59
2019-03-24T01:07:53.650Z,101557.98
2019-03-24T01:10:21.878Z,101547.47
2019-03-24T01:12:50.497Z,101548.87
2019-03-24T01:15:19.393Z,101545.39
2019-03-24T01:17:47.662Z,101551.20
2019-03-24T01:20:16.331Z,101546.81
2019-03-24T01:22:45.363Z,101549.16
2019-03-24T01:25:13.771Z,101550.11
2019-03-24T01:27:42.276Z,101549.41
2019-03-24T01:30:10.873Z,101549.48
2019-03-24T01:32:39.068Z,101543.14
2019-03-24T01:35:08.307Z,101547.16
2019-03-24T01:37:37.004Z,101548.19
2019-03-24T01:40:05.433Z,101545.87
2019-03-24T01:42:33.971Z,101548.24
2019-03-24T01:45:02.167Z,101545.20
2019-03-24T01:47:30.551Z,101541.97
2019-03-24T01:49:59.242Z,101544.89
2019-03-24T01:52:27.929Z,101540.83
2019-03-24T01:54:57.384Z,101544.25
2019-03-24T01:57:27.852Z,101542.31
2019-03-24T01:59:56.346Z,101537.60
2019-03-24T02:02:25.248Z,101530.63
2019-03-24T02:04:53.629Z,101530.35
2019-03-24T02:07:22.569Z,101525.70
2019-03-24T02:09:51.208Z,101522.33
2019-03-24T02:12:19.467Z,101518.92
2019-03-24T02:14:47.956Z,101520.54
2019-03-24T02:17:16.390Z,101523.39
2019-03-24T02:19:45.259Z,101523.06
2019-03-24T02:22:13.598Z,101520.35
2019-03-24T02:24:42.703Z,101524.92
2019-03-24T02:27:11.611Z,101524.73
2019-03-24T02:29:39.958Z,101517.69
2019-03-24T02:32:09.532Z,101518.55
2019-03-24T02:34:38.600Z,101522.98
2019-03-24T02:37:06.825Z,101514.34
2019-03-24T02:39:35.515Z,101523.50
2019-03-24T02:42:04.356Z,101515.31
2019-03-24T02:44:32.541Z,101511.41
2019-03-24T02:47:01.302Z,101510.07
2019-03-24T02:49:29.654Z,101508.22
2019-03-24T02:51:58.103Z,101507.38
2019-03-24T02:54:26.713Z,101498.95
2019-03-24T02:56:55.128Z,101497.92
2019-03-24T02:59:23.806Z,101502.00
2019-03-24T03:01:52.475Z,101503.09
2019-03-24T03:04:21.545Z,101497.11
2019-03-24T03:06:50.099Z,101493.27
2019-03-24T03:09:19.095Z,101487.13
2019-03-24T03:11:47.565Z,101484.11
2019-03-24T03:14:15.810Z,101480.49
2019-03-24T03:16:44.517Z,101487.00
2019-03-24T03:19:13.183Z,101482.10
2019-03-24T03:21:42.115Z,101487.02
2019-03-24T03:24:11.238Z,101492.30
2019-03-24T03:26:39.692Z,101490.56
2019-03-24T03:29:08.288Z,101484.63
2019-03-24T03:31:36.634Z,101489.73
2019-03-24T03:34:05.322Z,101487.53
2019-03-24T03:36:34.334Z,101489.27
2019-03-24T03:39:04.787Z,101483.46
2019-03-24T03:41:33.461Z,101488.70
2019-03-24T03:44:02.756Z,101486.88
2019-03-24T03:46:31.240Z,101493.28
2019-03-24T03:49:00.233Z,101489.73
2019-03-24T03:51:28.852Z,101481.27
2019-03-24T03:53:59.256Z,101484.81
2019-03-24T03:56:27.857Z,101486.36
2019-03-24T03:58:56.323Z,101490.77
2019-03-24T04:01:24.461Z,101490.75
2019-03-24T04:03:53.257Z,101498.89
2019-03-24T04:06:21.675Z,101490.69
2019-03-24T04:08:50.011Z,101498.31
2019-03-24T04:11:18.245Z,101492.05
2019-03-24T04:13:46.623Z,101486.11
2019-03-24T04:16:15.254Z,101490.30
2019-03-24T04:18:43.614Z,101491.86
2019-03-24T04:21:11.645Z,101486.62
2019-03-24T04:23:40.029Z,101481.34
2019-03-24T04:26:08.267Z,101483.02
2019-03-24T04:28:37.510Z,101483.97
2019-03-24T04:31:06.450Z,101484.95
2019-03-24T04:33:35.182Z,101476.31
2019-03-24T04:36:03.843Z,101480.94
2019-03-24T04:38:32.326Z,101477.84
2019-03-24T04:41:00.705Z,101476.73
2019-03-24T04:43:30.060Z,101465.52
2019-03-24T04:45:58.882Z,101474.35
2019-03-24T04:48:27.756Z,101473.00
2019-03-24T04:50:56.231Z,101472.67
2019-03-24T04:53:24.550Z,101474.73
2019-03-24T04:55:53.208Z,101477.11
2019-03-24T04:58:21.623Z,101474.55
2019-03-24T05:00:50.485Z,101475.70
2019-03-24T05:03:19.267Z,101472.81
2019-03-24T05:05:48.030Z,101467.75
2019-03-24T05:08:17.637Z,101472.16
2019-03-24T05:10:46.210Z,101470.95
2019-03-24T05:13:15.004Z,101474.22
2019-03-24T05:15:43.660Z,101474.41
2019-03-24T05:18:12.244Z,101473.38
2019-03-24T05:20:41.558Z,101473.84
2019-03-24T05:23:09.841Z,101471.17
2019-03-24T05:25:38.558Z,101477.78
2019-03-24T05:28:07.315Z,101477.11
2019-03-24T05:30:36.861Z,101474.03
2019-03-24T05:33:05.409Z,101479.14
2019-03-24T05:35:33.668Z,101476.73
2019-03-24T05:38:02.815Z,101474.36
2019-03-24T05:40:31.693Z,101476.42
2019-03-24T05:42:59.695Z,101472.86
2019-03-24T05:45:27.685Z,101472.67
2019-03-24T05:47:56.730Z,101476.03
2019-03-24T05:50:27.103Z,101478.93
2019-03-24T05:52:55.825Z,101477.86
2019-03-24T05:55:25.021Z,101481.59
2019-03-24T05:57:53.893Z,101472.03
2019-03-24T06:00:23.086Z,101477.41
2019-03-24T06:02:51.890Z,101476.63
2019-03-24T06:05:20.100Z,101476.03
2019-03-24T06:07:48.677Z,101471.56
2019-03-24T06:10:17.025Z,101475.72
2019-03-24T06:12:46.729Z,101474.92
2019-03-24T06:15:18.186Z,101481.63
2019-03-24T06:17:48.072Z,101476.63
2019-03-24T06:20:16.772Z,101473.80
2019-03-24T06:22:45.336Z,101478.43
2019-03-24T06:25:14.220Z,101478.27
2019-03-24T06:27:42.485Z,101481.50
2019-03-24T06:30:13.000Z,101475.83
2019-03-24T06:32:42.811Z,101485.17
2019-03-24T06:35:11.290Z,101477.58
2019-03-24T06:37:40.904Z,101473.45
2019-03-24T06:40:10.334Z,101480.81
2019-03-24T06:42:39.115Z,101477.13
2019-03-24T06:45:08.917Z,101483.56
2019-03-24T06:47:38.678Z,101477.28
2019-03-24T06:50:07.339Z,101464.77
2019-03-24T06:52:36.031Z,101473.17
2019-03-24T06:55:05.117Z,101480.05
2019-03-24T06:57:34.461Z,101475.23
2019-03-24T07:00:03.719Z,101483.84
2019-03-24T07:02:31.963Z,101481.37
2019-03-24T07:05:00.582Z,101480.32
2019-03-24T07:07:29.057Z,101475.69
2019-03-24T07:09:57.536Z,101477.87
2019-03-24T07:12:26.159Z,101483.55
2019-03-24T07:14:54.652Z,101481.53
2019-03-24T07:17:23.321Z,101484.16
2019-03-24T07:19:51.727Z,101474.49
2019-03-24T07:22:20.594Z,101480.50
2019-03-24T07:24:48.952Z,101479.38
2019-03-24T07:27:17.459Z,101484.16
2019-03-24T07:29:46.077Z,101483.69
2019-03-24T07:32:15.581Z,101478.89
2019-03-24T07:34:44.176Z,101480.69
2019-03-24T07:37:12.763Z,101484.92
2019-03-24T07:39:41.329Z,101484.05
2019-03-24T07:42:09.860Z,101476.90
2019-03-24T07:44:39.221Z,101478.59
2019-03-24T07:47:12.767Z,101479.31
2019-03-24T07:49:41.716Z,101478.19
2019-03-24T07:52:10.340Z,101473.20
2019-03-24T07:54:39.373Z,101471.83
2019-03-24T07:57:07.722Z,101469.90
2019-03-24T07:59:36.505Z,101467.20
2019-03-24T08:02:05.132Z,101464.05
2019-03-24T08:04:35.016Z,101459.40
2019-03-24T08:07:03.808Z,101461.17
2019-03-24T08:09:32.148Z,101461.58
2019-03-24T08:12:00.782Z,101459.06
2019-03-24T08:14:28.912Z,101455.48
2019-03-24T08:16:57.651Z,101449.75
2019-03-24T08:19:25.997Z,101445.22
2019-03-24T08:21:54.679Z,101441.96
2019-03-24T08:24:22.997Z,101446.75
2019-03-24T08:26:51.676Z,101443.78
2019-03-24T08:29:20.154Z,101435.20
2019-03-24T08:31:48.471Z,101431.24
2019-03-24T08:34:16.889Z,101438.42
2019-03-24T08:36:45.094Z,101424.42
2019-03-24T08:39:13.176Z,101428.95
2019-03-24T08:41:41.851Z,101414.09
2019-03-24T08:44:10.370Z,101408.54
2019-03-24T08:46:38.659Z,101408.23
2019-03-24T08:49:07.286Z,101410.88
2019-03-24T08:51:35.741Z,101401.75
2019-03-24T08:54:04.195Z,101398.02
2019-03-24T08:56:32.911Z,101390.95
2019-03-24T08:59:01.516Z,101391.95
2019-03-24T09:01:29.618Z,101381.68
2019-03-24T09:03:57.972Z,101378.39
2019-03-24T09:06:26.459Z,101375.72
2019-03-24T09:08:54.991Z,101377.05
2019-03-24T09:11:31.286Z,101376.66
2019-03-24T09:13:55.042Z,101377.95
2019-03-24T09:16:23.559Z,101380.88
2019-03-24T09:18:53.131Z,101375.50
2019-03-24T09:21:21.933Z,101377.16
2019-03-24T09:23:50.488Z,101375.70
2019-03-24T09:26:19.262Z,101374.16
2019-03-24T09:28:47.871Z,101380.34
2019-03-24T09:31:16.554Z,101378.25
2019-03-24T09:33:45.031Z,101377.16
2019-03-24T09:36:13.631Z,101371.76
2019-03-24T09:38:42.511Z,101370.98
2019-03-24T09:41:11.888Z,101371.12
2019-03-24T09:43:40.569Z,101373.84
2019-03-24T09:46:09.261Z,101371.27
2019-03-24T09:48:37.588Z,101366.98
2019-03-24T09:51:06.299Z,101369.84
2019-03-24T09:53:35.314Z,101365.55
2019-03-24T09:56:03.973Z,101364.50
2019-03-24T09:58:32.211Z,101347.12
2019-03-24T10:01:00.790Z,101352.08
2019-03-24T10:03:29.741Z,101342.98
2019-03-24T10:05:58.821Z,101339.19
2019-03-24T10:08:27.349Z,101337.52
2019-03-24T10:10:55.680Z,101332.80
2019-03-24T10:13:24.205Z,101337.78
2019-03-24T10:15:52.779Z,101330.05
2019-03-24T10:18:21.142Z,101327.24
2019-03-24T10:20:50.274Z,101315.89
2019-03-24T10:23:19.537Z,101311.98
2019-03-24T10:25:47.932Z,101310.53
2019-03-24T10:28:16.849Z,101298.48
2019-03-24T10:30:45.582Z,101297.55
2019-03-24T10:33:13.779Z,101300.59
2019-03-24T10:35:43.022Z,101299.64
2019-03-24T10:38:11.360Z,101297.02
2019-03-24T10:40:39.555Z,101295.77
2019-03-24T10:43:07.740Z,101293.34
2019-03-24T10:45:36.593Z,101297.25
2019-03-24T10:48:04.876Z,101297.41
2019-03-24T10:50:33.398Z,101290.67
2019-03-24T10:53:02.231Z,101280.21
2019-03-24T10:55:31.238Z,101289.97
2019-03-24T10:58:00.126Z,101281.27
2019-03-24T11:00:40.278Z,101275.83
2019-03-24T11:03:08.861Z,101270.02
2019-03-24T11:05:37.470Z,101275.02
2019-03-24T11:08:05.880Z,101264.31
2019-03-24T11:10:34.800Z,101259.59
2019-03-24T11:13:03.500Z,101261.81
2019-03-24T11:15:31.834Z,101266.08
2019-03-24T11:18:00.061Z,101256.08
2019-03-24T11:20:28.463Z,101254.07
2019-03-24T11:22:56.681Z,101251.98
2019-03-24T11:25:25.440Z,101248.21
2019-03-24T11:27:54.480Z,101246.51
2019-03-24T11:30:23.436Z,101244.32
2019-03-24T11:32:51.667Z,101240.28
2019-03-24T11:35:19.826Z,101240.08
2019-03-24T11:37:48.023Z,101239.36
2019-03-24T11:40:16.601Z,101241.62
2019-03-24T11:42:44.842Z,101240.16
2019-03-24T11:45:14.372Z,101240.37
2019-03-24T11:47:43.147Z,101236.32
2019-03-24T11:50:12.046Z,101233.20
2019-03-24T11:52:40.766Z,101241.13
2019-03-24T11:55:11.092Z,101225.81
2019-03-24T11:57:39.649Z,101231.52
2019-03-24T12:00:09.909Z,101226.39
2019-03-24T12:02:38.842Z,101226.55
2019-03-24T12:05:07.774Z,101224.97
2019-03-24T12:07:36.132Z,101228.02
2019-03-24T12:10:07.420Z,101219.12
2019-03-24T12:12:36.138Z,101214.75
2019-03-24T12:15:05.594Z,101215.15
2019-03-24T12:17:34.298Z,101215.69
2019-03-24T12:20:02.950Z,101215.48
2019-03-24T12:22:31.472Z,101205.30
2019-03-24T12:24:59.483Z,101199.59
2019-03-24T12:27:27.697Z,101197.33
2019-03-24T12:29:55.795Z,101204.53
2019-03-24T12:32:24.395Z,101200.13
2019-03-24T12:34:53.188Z,101205.19
2019-03-24T12:37:22.021Z,101191.67
2019-03-24T12:39:50.870Z,101186.39
2019-03-24T12:42:19.619Z,101191.85
2019-03-24T12:44:47.544Z,101190.43
2019-03-24T12:47:16.496Z,101193.81
2019-03-24T12:49:45.505Z,101187.09
2019-03-24T12:52:14.395Z,101189.73
2019-03-24T12:54:43.025Z,101182.63
2019-03-24T12:57:11.515Z,101187.77
2019-03-24T12:59:45.127Z,101187.13
2019-03-24T13:02:14.009Z,101176.70
2019-03-24T13:04:42.529Z,101181.70
2019-03-24T13:07:11.076Z,101173.16
2019-03-24T13:09:39.739Z,101175.73
2019-03-24T13:12:08.396Z,101172.34
2019-03-24T13:14:36.611Z,101171.69
2019-03-24T13:17:05.443Z,101169.90
2019-03-24T13:19:36.019Z,101172.14
2019-03-24T13:22:04.870Z,101172.31
2019-03-24T13:24:33.126Z,101165.79
2019-03-24T13:27:02.195Z,101174.21
2019-03-24T13:29:31.259Z,101167.53
2019-03-24T13:31:59.938Z,101164.86
2019-03-24T13:34:28.225Z,101160.98
2019-03-24T13:36:56.562Z,101156.12
2019-03-24T13:39:25.269Z,101152.23
2019-03-24T13:41:53.883Z,101147.72
2019-03-24T13:44:22.370Z,101138.82
2019-03-24T13:46:51.473Z,101137.92
2019-03-24T13:49:20.569Z,101132.36
2019-03-24T13:51:49.108Z,101137.23
2019-03-24T13:54:17.564Z,101133.17
2019-03-24T13:56:46.483Z,101138.16
2019-03-24T13:59:15.285Z,101131.02
2019-03-24T14:01:43.641Z,101133.30
2019-03-24T14:04:12.211Z,101144.44
2019-03-24T14:06:40.593Z,101144.70
2019-03-24T14:09:10.048Z,101145.02
2019-03-24T14:11:39.813Z,101139.45
2019-03-24T14:14:08.386Z,101136.69
2019-03-24T14:16:36.966Z,101138.04
2019-03-24T14:19:05.246Z,101129.73
2019-03-24T14:21:34.071Z,101132.70
2019-03-24T14:24:02.657Z,101129.14
2019-03-24T14:26:30.890Z,101134.91
2019-03-24T14:28:59.384Z,101136.25
2019-03-24T14:31:27.659Z,101137.86
2019-03-24T14:33:56.227Z,101144.34
2019-03-24T14:36:25.197Z,101140.23
2019-03-24T14:38:53.471Z,101137.91
2019-03-24T14:41:21.910Z,101142.99
2019-03-24T14:43:50.652Z,101137.91
2019-03-24T14:46:19.197Z,101135.10
2019-03-24T14:48:47.762Z,101138.22
2019-03-24T14:51:16.348Z,101142.08
2019-03-24T14:53:44.914Z,101135.81
2019-03-24T14:56:15.138Z,101143.83
2019-03-24T14:58:43.933Z,101146.83
2019-03-24T15:01:12.289Z,101147.00
2019-03-24T15:03:40.697Z,101148.10
2019-03-24T15:06:11.124Z,101142.27
2019-03-24T15:08:40.155Z,101146.88
2019-03-24T15:11:08.960Z,101142.86
2019-03-24T15:13:38.220Z,101142.81
2019-03-24T15:16:07.534Z,101144.47
2019-03-24T15:18:36.455Z,101141.09
2019-03-24T15:21:06.153Z,101145.03
2019-03-24T15:23:34.498Z,101138.05
2019-03-24T15:26:03.115Z,101139.71
2019-03-24T15:28:31.897Z,101134.86
2019-03-24T15:31:00.797Z,101134.93
2019-03-24T15:33:29.177Z,101139.30
2019-03-24T15:35:57.880Z,101140.33
2019-03-24T15:38:26.081Z,101138.45
2019-03-24T15:40:54.596Z,101137.55
2019-03-24T15:43:22.818Z,101141.69
2019-03-24T15:45:52.309Z,101139.13
2019-03-24T15:48:20.754Z,101142.16
2019-03-24T15:50:49.591Z,101151.71
2019-03-24T15:53:17.704Z,101155.00
2019-03-24T15:55:46.066Z,101153.64
2019-03-24T15:58:15.201Z,101144.88
2019-03-24T16:00:47.238Z,101156.42
2019-03-24T16:03:16.037Z,101159.43
2019-03-24T16:05:45.797Z,101154.75
2019-03-24T16:08:14.029Z,101156.16
2019-03-24T16:10:42.263Z,101151.37
2019-03-24T16:13:10.734Z,101155.91
2019-03-24T16:15:40.096Z,101152.92
2019-03-24T16:18:08.949Z,101144.28
2019-03-24T16:20:37.150Z,101141.53
2019-03-24T16:23:05.540Z,101140.41
2019-03-24T16:25:33.956Z,101139.56
2019-03-24T16:28:02.318Z,101135.34
2019-03-24T16:30:30.952Z,101136.67
2019-03-24T16:32:59.642Z,101137.55
2019-03-24T16:35:27.974Z,101138.36
2019-03-24T16:37:57.092Z,101131.05
2019-03-24T16:40:26.427Z,101127.73
2019-03-24T16:42:55.264Z,101124.52
2019-03-24T16:45:23.492Z,101120.00
2019-03-24T16:47:52.469Z,101124.34
2019-03-24T16:50:20.796Z,101122.75
2019-03-24T16:52:49.339Z,101116.95
2019-03-24T16:55:17.704Z,101114.39
2019-03-24T16:57:46.616Z,101117.67
2019-03-24T17:00:15.254Z,101112.10
2019-03-24T17:02:43.439Z,101113.34
2019-03-24T17:05:12.283Z,101107.66
2019-03-24T17:07:40.795Z,101109.30
2019-03-24T17:10:09.834Z,101113.54
2019-03-24T17:12:38.399Z,101112.25
2019-03-24T17:15:07.897Z,101106.45
2019-03-24T17:17:36.457Z,101106.42
2019-03-24T17:20:05.024Z,101110.41
2019-03-24T17:22:33.686Z,101106.09
2019-03-24T17:25:02.219Z,101115.67
2019-03-24T17:27:31.190Z,101115.34
2019-03-24T17:29:59.568Z,101120.48
2019-03-24T17:32:28.254Z,101117.34
2019-03-24T17:34:56.947Z,101114.45
2019-03-24T17:37:25.938Z,101120.58
2019-03-24T17:39:54.580Z,101123.69
2019-03-24T17:42:22.736Z,101135.02
2019-03-24T17:44:50.817Z,101126.66
2019-03-24T17:47:19.081Z,101132.27
2019-03-24T17:49:48.719Z,101131.61
2019-03-24T17:52:17.615Z,101134.55
2019-03-24T17:54:45.730Z,101133.81
2019-03-24T17:57:14.375Z,101129.06
2019-03-24T17:59:43.485Z,101137.06
2019-03-24T18:02:14.521Z,101141.60
2019-03-24T18:04:42.617Z,101141.42
2019-03-24T18:07:11.201Z,101148.85
2019-03-24T18:09:39.786Z,101142.77
2019-03-24T18:12:08.279Z,101149.04
2019-03-24T18:14:36.674Z,101140.67
2019-03-24T18:17:05.246Z,101134.83
2019-03-24T18:19:33.968Z,101140.11
2019-03-24T18:22:11.260Z,101141.34
2019-03-24T18:24:32.958Z,101134.90
2019-03-24T18:27:02.730Z,101133.28
2019-03-24T18:29:31.256Z,101140.53
2019-03-24T18:31:59.357Z,101142.73
2019-03-24T18:34:27.833Z,101144.32
2019-03-24T18:36:56.438Z,101145.01
2019-03-24T18:39:25.764Z,101148.22
2019-03-24T18:41:53.891Z,101145.00
2019-03-24T18:44:22.571Z,101153.52
2019-03-24T18:46:50.959Z,101151.94
2019-03-24T18:49:19.888Z,101150.14
2019-03-24T18:51:48.109Z,101147.41
2019-03-24T18:54:16.201Z,101145.63
2019-03-24T18:56:44.815Z,101156.40
2019-03-24T18:59:15.084Z,101146.88
2019-03-24T19:01:43.709Z,101145.31
2019-03-24T19:04:11.959Z,101143.03
2019-03-24T19:06:40.701Z,101145.41
2019-03-24T19:09:09.512Z,101137.89
2019-03-24T19:11:37.918Z,101146.34
2019-03-24T19:14:06.320Z,101147.62
2019-03-24T19:16:35.437Z,101149.00
2019-03-24T19:19:04.790Z,101144.72
2019-03-24T19:21:33.193Z,101146.84
2019-03-24T19:24:02.059Z,101143.92
2019-03-24T19:26:30.959Z,101139.28
2019-03-24T19:28:59.389Z,101149.80
2019-03-24T19:31:28.126Z,101145.05
2019-03-24T19:33:57.193Z,101145.77
2019-03-24T19:36:26.258Z,101140.88
2019-03-24T19:38:55.427Z,101146.04
2019-03-24T19:41:23.793Z,101153.44
2019-03-24T19:43:51.915Z,101145.25
2019-03-24T19:46:20.311Z,101143.27
2019-03-24T19:48:49.886Z,101146.25
2019-03-24T19:51:18.102Z,101150.99
2019-03-24T19:53:46.356Z,101151.11
2019-03-24T19:56:14.741Z,101153.01
2019-03-24T19:58:43.198Z,101149.67
2019-03-24T20:01:12.473Z,101152.30
2019-03-24T20:03:43.442Z,101155.43
2019-03-24T20:06:11.726Z,101153.38
2019-03-24T20:08:39.834Z,101151.03
2019-03-24T20:11:08.287Z,101144.34
2019-03-24T20:13:36.531Z,101155.67
2019-03-24T20:16:05.099Z,101159.98
2019-03-24T20:18:33.563Z,101161.55
2019-03-24T20:21:01.928Z,101149.81
2019-03-24T20:23:30.228Z,101159.98
2019-03-24T20:25:58.839Z,101158.70
2019-03-24T20:28:27.574Z,101160.59
2019-03-24T20:30:55.949Z,101153.23
2019-03-24T20:33:24.463Z,101153.20
2019-03-24T20:35:53.503Z,101152.05
2019-03-24T20:38:21.733Z,101155.22
2019-03-24T20:40:50.631Z,101156.26
2019-03-24T20:43:19.043Z,101146.80
2019-03-24T20:45:47.269Z,101154.55
2019-03-24T20:48:16.001Z,101157.18
2019-03-24T20:50:44.810Z,101143.47
2019-03-24T20:53:18.329Z,101143.86
2019-03-24T20:55:44.262Z,101153.70
2019-03-24T20:58:13.278Z,101159.81
2019-03-24T21:00:42.232Z,101158.28
2019-03-24T21:03:11.205Z,101150.41
2019-03-24T21:05:39.370Z,101147.02
2019-03-24T21:08:08.052Z,101146.97
2019-03-24T21:10:36.862Z,101145.91
2019-03-24T21:13:05.489Z,101149.72
2019-03-24T21:15:34.096Z,101146.10
2019-03-24T21:18:02.715Z,101145.02
2019-03-24T21:20:31.417Z,101150.41
2019-03-24T21:23:00.047Z,101147.44
2019-03-24T21:25:28.480Z,101146.42
2019-03-24T21:27:57.710Z,101141.69
2019-03-24T21:30:37.331Z,101141.33
2019-03-24T21:33:06.679Z,101141.23
2019-03-24T21:35:36.205Z,101137.91
2019-03-24T21:38:05.348Z,101143.60
2019-03-24T21:40:34.293Z,101139.38
2019-03-24T21:43:02.827Z,101134.87
2019-03-24T21:45:32.287Z,101128.86
2019-03-24T21:48:01.147Z,101138.43
2019-03-24T21:50:30.334Z,101138.37
2019-03-24T21:52:59.297Z,101127.08
2019-03-24T21:55:27.579Z,101129.53
2019-03-24T21:57:57.893Z,101128.84
2019-03-24T22:00:33.079Z,101139.72
2019-03-24T22:03:01.160Z,101134.13
2019-03-24T22:05:30.088Z,101134.97
2019-03-24T22:07:59.406Z,101135.06
2019-03-24T22:10:28.365Z,101133.91
2019-03-24T22:12:56.717Z,101137.38
2019-03-24T22:15:25.477Z,101134.94
2019-03-24T22:17:53.918Z,101136.30
2019-03-24T22:20:22.513Z,101142.13
2019-03-24T22:22:50.683Z,101134.03
2019-03-24T22:25:19.079Z,101132.11
2019-03-24T22:27:47.807Z,101131.31
2019-03-24T22:30:16.613Z,101129.78
2019-03-24T22:32:45.196Z,101131.57
2019-03-24T22:35:13.699Z,101134.54
2019-03-24T22:37:42.192Z,101130.08
2019-03-24T22:40:11.027Z,101127.75
2019-03-24T22:42:40.170Z,101130.08
2019-03-24T22:45:10.169Z,101128.37
2019-03-24T22:47:38.428Z,101121.48
2019-03-24T22:50:07.647Z,101122.33
2019-03-24T22:52:36.255Z,101123.05
2019-03-24T22:55:05.609Z,101117.81
2019-03-24T22:57:34.173Z,101114.14
2019-03-24T23:00:03.482Z,101114.23
2019-03-24T23:02:31.562Z,101112.38
2019-03-24T23:05:00.452Z,101109.64
2019-03-24T23:07:28.986Z,101113.62
2019-03-24T23:09:57.504Z,101111.47
2019-03-24T23:12:25.870Z,101112.83
2019-03-24T23:14:54.407Z,101107.52
2019-03-24T23:17:23.153Z,101106.48
2019-03-24T23:19:51.124Z,101108.44
2019-03-24T23:22:19.617Z,101110.16
2019-03-24T23:24:48.004Z,101100.54
2019-03-24T23:27:16.377Z,101101.25
2019-03-24T23:29:45.291Z,101097.13
2019-03-24T23:32:13.529Z,101091.16
2019-03-24T23:34:42.568Z,101093.83
2019-03-24T23:37:11.208Z,101091.75
2019-03-24T23:39:39.437Z,101093.36
2019-03-24T23:42:07.794Z,101089.92
2019-03-24T23:44:35.982Z,101097.19
2019-03-24T23:47:04.142Z,101089.80
2019-03-24T23:49:32.362Z,101085.94
2019-03-24T23:52:01.029Z,101085.98
2019-03-24T23:54:29.632Z,101080.35
2019-03-24T23:56:58.948Z,101082.07
2019-03-24T23:59:27.543Z,101083.81
